Time;durP1;ratioP1;P1;durP2;ratioP2;P2;SDS_P1;SDS_P2;PMS_P1;PMS_P2;Temp;Humidity;BMP_temperature;BMP_pressure;BME280_temperature;BME280_humidity;BME280_pressure;Samples;Min_cycle;Max_cycle;Signal;HPM_P1;HPM_P2
2023/12/20 00:00:52;;;;;;;17.63;1.70;;;;;;;3.53;100.00;100876.03;7369418;19;20862;-37
2023/12/20 00:03:22;;;;;;;18.93;2.10;;;;;;;3.54;100.00;100869.28;7393240;19;20400;-37
2023/12/20 00:05:54;;;;;;;12.73;2.60;;;;;;;3.51;100.00;100868.28;7368737;19;20431;-37
2023/12/20 00:08:23;;;;;;;20.87;2.30;;;;;;;3.52;100.00;100866.59;7393171;19;20765;-37
2023/12/20 00:10:53;;;;;;;4.13;0.90;;;;;;;3.47;100.00;100862.81;7368550;19;20502;-41
2023/12/20 00:13:22;;;;;;;8.73;1.80;;;;;;;3.43;100.00;100848.09;7393907;19;20761;-38
2023/12/20 00:15:53;;;;;;;10.53;1.63;;;;;;;3.40;100.00;100850.41;7368937;19;20958;-37
2023/12/20 00:18:22;;;;;;;11.77;2.40;;;;;;;3.38;100.00;100845.19;7392754;19;20411;-37
2023/12/20 00:20:54;;;;;;;10.37;3.03;;;;;;;3.34;100.00;100841.53;7369553;19;20431;-37
2023/12/20 00:23:24;;;;;;;12.70;1.50;;;;;;;3.35;100.00;100845.84;7392789;19;20408;-37
2023/12/20 00:25:54;;;;;;;18.93;2.40;;;;;;;3.40;100.00;100843.66;7370057;19;20419;-39
2023/12/20 00:28:23;;;;;;;18.43;2.77;;;;;;;3.33;100.00;100837.22;7398554;19;20417;-37
2023/12/20 00:30:53;;;;;;;12.23;1.70;;;;;;;3.35;100.00;100825.44;7375018;19;20425;-37
2023/12/20 00:33:23;;;;;;;12.23;1.57;;;;;;;3.33;100.00;100827.00;7397844;19;20475;-37
2023/12/20 00:35:55;;;;;;;9.87;2.13;;;;;;;3.33;100.00;100814.25;7373971;19;20448;-37
2023/12/20 00:38:25;;;;;;;6.33;1.40;;;;;;;3.32;100.00;100811.59;7398749;19;20395;-37
2023/12/20 00:40:54;;;;;;;8.03;1.60;;;;;;;3.28;100.00;100810.47;7375558;19;20449;-37
2023/12/20 00:43:24;;;;;;;11.63;2.13;;;;;;;3.35;100.00;100805.03;7400817;19;21071;-37
2023/12/20 00:45:55;;;;;;;14.60;2.83;;;;;;;3.36;100.00;100804.28;7375475;19;20431;-39
2023/12/20 00:48:26;;;;;;;6.60;1.43;;;;;;;3.35;100.00;100797.38;7398291;19;20943;-38
2023/12/20 00:50:59;;;;;;;18.93;2.53;;;;;;;3.38;100.00;100779.78;7375162;19;20431;-37
2023/12/20 00:53:28;;;;;;;5.20;1.20;;;;;;;3.41;100.00;100778.19;7400339;19;20424;-37
2023/12/20 00:55:58;;;;;;;12.23;2.50;;;;;;;3.46;100.00;100766.66;7375630;19;20431;-37
2023/12/20 00:58:28;;;;;;;12.53;1.87;;;;;;;3.41;100.00;100776.56;7398588;19;20836;-39
2023/12/20 01:00:58;;;;;;;7.70;1.37;;;;;;;3.45;100.00;100765.78;7374939;19;20444;-37
2023/12/20 01:03:27;;;;;;;8.00;3.00;;;;;;;3.49;100.00;100772.88;7398013;19;20408;-37
2023/12/20 01:06:00;;;;;;;4.03;2.07;;;;;;;3.43;100.00;100759.69;7374631;19;20426;-37
2023/12/20 01:08:29;;;;;;;20.33;3.07;;;;;;;3.46;100.00;100765.00;7398423;19;20412;-37
2023/12/20 01:10:59;;;;;;;12.17;1.63;;;;;;;3.44;100.00;100768.22;7373692;19;20419;-37
2023/12/20 01:13:29;;;;;;;13.77;1.80;;;;;;;3.43;100.00;100761.38;7397588;19;20410;-37
2023/12/20 01:15:58;;;;;;;10.80;2.67;;;;;;;3.38;100.00;100744.06;7374019;19;20455;-37
2023/12/20 01:18:28;;;;;;;11.37;1.90;;;;;;;3.41;100.00;100740.84;7397665;19;20419;-37
2023/12/20 01:21:04;;;;;;;12.27;2.47;;;;;;;3.37;100.00;100739.75;7373981;19;20447;-37
2023/12/20 01:23:34;;;;;;;14.03;1.93;;;;;;;3.37;100.00;100732.09;7398032;19;20415;-37
2023/12/20 01:26:05;;;;;;;10.30;1.57;;;;;;;3.36;100.00;100726.88;7374782;19;20514;-37
2023/12/20 01:28:34;;;;;;;11.10;1.50;;;;;;;3.34;100.00;100724.19;7395794;19;20395;-37
2023/12/20 01:31:04;;;;;;;16.93;2.23;;;;;;;3.31;100.00;100716.34;7373874;19;20431;-37
2023/12/20 01:33:34;;;;;;;9.93;1.50;;;;;;;3.33;100.00;100716.47;7397399;19;20743;-37
2023/12/20 01:36:07;;;;;;;12.70;1.47;;;;;;;3.32;100.00;100718.13;7372925;19;20443;-37
2023/12/20 01:38:36;;;;;;;24.83;6.53;;;;;;;3.36;100.00;100709.00;7393745;19;20424;-37
2023/12/20 01:41:06;;;;;;;6.03;0.93;;;;;;;3.31;100.00;100711.25;7374160;19;20953;-37
2023/12/20 01:43:36;;;;;;;9.83;1.77;;;;;;;3.33;100.00;100703.72;7396159;19;20491;-37
2023/12/20 01:46:19;;;;;;;19.33;2.23;;;;;;;3.32;100.00;100697.72;7375349;19;20485;-41
2023/12/20 01:48:49;;;;;;;16.93;3.33;;;;;;;3.34;100.00;100680.84;7396065;19;20416;-36
2023/12/20 01:51:22;;;;;;;7.33;1.20;;;;;;;3.38;100.00;100677.75;7375024;19;20449;-37
2023/12/20 01:53:52;;;;;;;15.00;2.00;;;;;;;3.42;100.00;100683.03;7379762;19;20474;-37
2023/12/20 01:56:22;;;;;;;25.63;2.30;;;;;;;3.41;100.00;100671.06;7396907;19;20443;-37
2023/12/20 01:58:52;;;;;;;6.70;1.03;;;;;;;3.42;100.00;100667.72;7378644;19;20416;-36
2023/12/20 02:01:22;;;;;;;12.40;1.80;;;;;;;3.42;100.00;100655.88;7396266;19;20411;-37
2023/12/20 02:03:52;;;;;;;3.93;0.90;;;;;;;3.40;100.00;100654.00;7383541;19;20407;-37
2023/12/20 02:06:24;;;;;;;8.87;2.40;;;;;;;3.44;100.00;100651.75;7396710;19;20515;-37
2023/12/20 02:08:54;;;;;;;14.57;1.90;;;;;;;3.45;100.00;100648.44;7373415;19;20403;-37
2023/12/20 02:11:24;;;;;;;11.47;2.30;;;;;;;3.43;100.00;100650.00;7395997;19;20772;-37
2023/12/20 02:13:54;;;;;;;14.30;3.07;;;;;;;3.41;100.00;100635.34;7372823;19;20414;-37
2023/12/20 02:16:24;;;;;;;9.97;1.43;;;;;;;3.37;100.00;100635.16;7394920;19;20867;-37
2023/12/20 02:18:54;;;;;;;19.63;2.43;;;;;;;3.37;100.00;100619.84;7374880;19;20407;-36
2023/12/20 02:21:34;;;;;;;12.47;1.67;;;;;;;3.36;100.00;100618.09;7392959;19;20971;-37
2023/12/20 02:24:04;;;;;;;4.17;0.93;;;;;;;3.34;100.00;100609.44;7372819;19;20399;-37
2023/12/20 02:26:34;;;;;;;8.03;1.23;;;;;;;3.35;100.00;100608.63;7395040;19;20445;-37
2023/12/20 02:29:04;;;;;;;14.50;1.70;;;;;;;3.41;100.00;100610.75;7372125;19;20411;-37
2023/12/20 02:31:33;;;;;;;12.83;3.03;;;;;;;3.36;100.00;100618.09;7388360;19;20407;-37
2023/12/20 02:34:03;;;;;;;8.63;1.20;;;;;;;3.40;100.00;100613.19;7372741;19;20414;-37
2023/12/20 02:36:35;;;;;;;10.43;1.63;;;;;;;3.40;100.00;100602.97;7394359;19;20446;-37
2023/12/20 02:39:05;;;;;;;9.53;2.13;;;;;;;3.43;100.00;100603.22;7372144;19;20404;-37
2023/12/20 02:41:35;;;;;;;9.77;1.80;;;;;;;3.45;100.00;100596.53;7396066;19;20749;-37
2023/12/20 02:44:05;;;;;;;10.83;1.77;;;;;;;3.44;100.00;100590.53;7371302;19;20408;-37
2023/12/20 02:46:34;;;;;;;2.40;1.10;;;;;;;3.41;100.00;100581.78;7393253;19;20439;-37
2023/12/20 02:49:04;;;;;;;7.17;1.67;;;;;;;3.42;100.00;100570.81;7372160;19;20424;-37
2023/12/20 02:51:38;;;;;;;10.20;1.90;;;;;;;3.45;100.00;100565.91;7393437;19;20960;-37
2023/12/20 02:54:07;;;;;;;7.37;1.60;;;;;;;3.44;100.00;100549.72;7371851;19;20484;-37
2023/12/20 02:56:37;;;;;;;9.13;1.40;;;;;;;3.46;100.00;100531.97;7391940;19;20443;-37
2023/12/20 02:59:08;;;;;;;10.73;1.87;;;;;;;3.48;100.00;100504.88;7371676;19;20411;-37
2023/12/20 03:01:38;;;;;;;4.33;0.87;;;;;;;3.41;100.00;100498.50;7391772;19;20511;-37
2023/12/20 03:04:07;;;;;;;5.20;1.13;;;;;;;3.47;100.00;100501.47;7373198;19;20397;-37
2023/12/20 03:06:40;;;;;;;8.80;1.30;;;;;;;3.49;100.00;100505.00;7392297;19;20815;-37
2023/12/20 03:09:10;;;;;;;2.23;0.77;;;;;;;3.49;100.00;100487.13;7371612;19;20798;-37
2023/12/20 03:11:39;;;;;;;6.87;1.77;;;;;;;3.51;100.00;100479.59;7393364;19;20508;-37
2023/12/20 03:14:09;;;;;;;10.23;1.63;;;;;;;3.49;100.00;100471.84;7371603;19;20415;-37
2023/12/20 03:16:38;;;;;;;11.47;1.80;;;;;;;3.50;100.00;100462.53;7392188;19;20451;-38
2023/12/20 03:19:08;;;;;;;12.00;1.17;;;;;;;3.44;100.00;100470.63;7372350;19;20844;-37
2023/12/20 03:21:40;;;;;;;5.47;1.73;;;;;;;3.50;100.00;100462.53;7391377;19;20428;-37
2023/12/20 03:24:10;;;;;;;10.17;1.73;;;;;;;3.49;100.00;100453.13;7371109;19;20419;-37
2023/12/20 03:26:39;;;;;;;16.20;2.23;;;;;;;3.48;100.00;100428.34;7391639;19;20439;-37
2023/12/20 03:29:09;;;;;;;3.87;0.90;;;;;;;3.45;100.00;100438.38;7370865;19;20953;-37
2023/12/20 03:31:38;;;;;;;10.53;1.37;;;;;;;3.49;100.00;100419.94;7392637;19;20768;-37
2023/12/20 03:34:08;;;;;;;2.90;0.83;;;;;;;3.46;100.00;100422.28;7368785;19;20439;-37
2023/12/20 03:36:40;;;;;;;4.63;1.00;;;;;;;3.53;100.00;100415.94;7390847;19;20443;-37
2023/12/20 03:39:10;;;;;;;4.53;0.80;;;;;;;3.48;100.00;100397.75;7371947;19;20436;-37
2023/12/20 03:41:39;;;;;;;3.20;1.50;;;;;;;3.47;100.00;100395.97;7390937;19;20479;-38
2023/12/20 03:44:09;;;;;;;9.10;1.53;;;;;;;3.52;100.00;100392.06;7370775;19;20751;-37
2023/12/20 03:46:38;;;;;;;19.87;2.13;;;;;;;3.53;100.00;100382.75;7391045;19;20801;-37
2023/12/20 03:49:08;;;;;;;8.37;2.90;;;;;;;3.50;100.00;100378.34;7369875;19;20408;-38
2023/12/20 03:51:41;;;;;;;7.23;1.50;;;;;;;3.50;100.00;100363.91;7389751;19;20781;-39
2023/12/20 03:54:11;;;;;;;15.23;2.17;;;;;;;3.47;100.00;100363.72;7370245;19;20420;-38
2023/12/20 03:56:41;;;;;;;7.67;1.10;;;;;;;3.47;100.00;100345.88;7390906;19;20523;-37
2023/12/20 03:59:10;;;;;;;10.33;1.73;;;;;;;3.49;100.00;100330.66;7370002;19;20391;-38
2023/12/20 04:01:40;;;;;;;7.20;1.40;;;;;;;3.52;100.00;100328.28;7390800;19;20417;-37
2023/12/20 04:04:09;;;;;;;4.17;1.03;;;;;;;3.51;100.00;100306.13;7369424;19;20784;-37
2023/12/20 04:06:42;;;;;;;6.10;1.50;;;;;;;3.52;100.00;100287.47;7390533;19;20443;-38
2023/12/20 04:09:12;;;;;;;9.13;1.50;;;;;;;3.55;100.00;100277.47;7369564;19;20916;-37
2023/12/20 04:11:41;;;;;;;3.93;1.20;;;;;;;3.55;100.00;100257.06;7390174;19;20399;-38
2023/12/20 04:14:11;;;;;;;5.03;1.30;;;;;;;3.62;100.00;100243.91;7370969;19;20492;-38
2023/12/20 04:16:42;;;;;;;3.80;0.53;;;;;;;3.58;100.00;100236.84;7390173;19;20526;-39
2023/12/20 04:19:15;;;;;;;8.10;1.60;;;;;;;3.61;100.00;100226.84;7369226;19;20407;-37
2023/12/20 04:21:48;;;;;;;3.40;0.73;;;;;;;3.63;100.00;100215.03;7389227;19;21019;-37
2023/12/20 04:24:17;;;;;;;5.60;1.13;;;;;;;3.67;100.00;100215.22;7369782;19;20789;-37
2023/12/20 04:26:47;;;;;;;7.40;2.03;;;;;;;3.63;100.00;100202.28;7390198;19;20451;-38
2023/12/20 04:29:16;;;;;;;14.33;1.50;;;;;;;3.65;100.00;100193.03;7368725;19;20409;-37
2023/12/20 04:31:46;;;;;;;13.70;2.30;;;;;;;3.65;100.00;100177.72;7389599;19;20794;-38
2023/12/20 04:34:16;;;;;;;10.10;1.37;;;;;;;3.65;100.00;100171.78;7367181;19;20790;-38
2023/12/20 04:36:48;;;;;;;7.50;1.50;;;;;;;3.67;100.00;100174.38;7388824;19;20445;-37
2023/12/20 04:39:17;;;;;;;12.53;1.77;;;;;;;3.67;100.00;100166.72;7368253;19;20395;-38
2023/12/20 04:41:47;;;;;;;2.63;1.03;;;;;;;3.68;100.00;100163.41;7388756;19;20495;-37
2023/12/20 04:44:17;;;;;;;5.07;1.27;;;;;;;3.71;100.00;100161.03;7368389;19;20395;-38
2023/12/20 04:46:46;;;;;;;10.40;1.10;;;;;;;3.71;100.00;100148.28;7389517;19;20439;-38
2023/12/20 04:49:16;;;;;;;7.53;1.70;;;;;;;3.72;100.00;100148.38;7367904;19;20395;-37
2023/12/20 04:51:49;;;;;;;5.80;1.60;;;;;;;3.73;100.00;100144.13;7390786;19;20758;-37
2023/12/20 04:54:18;;;;;;;3.83;0.80;;;;;;;3.73;100.00;100139.03;7368427;19;20395;-37
2023/12/20 04:56:48;;;;;;;13.63;2.20;;;;;;;3.76;100.00;100140.09;7389206;19;20451;-37
2023/12/20 04:59:17;;;;;;;4.33;1.10;;;;;;;3.76;100.00;100144.34;7369828;19;20430;-38
2023/12/20 05:01:47;;;;;;;4.47;1.00;;;;;;;3.77;100.00;100120.56;7388410;19;20387;-37
2023/12/20 05:04:17;;;;;;;8.73;2.13;;;;;;;3.77;100.00;100121.47;7367628;19;20391;-37
2023/12/20 05:06:49;;;;;;;14.17;2.73;;;;;;;3.79;100.00;100118.97;7388667;19;20467;-37
2023/12/20 05:09:19;;;;;;;3.30;0.93;;;;;;;3.84;100.00;100114.16;7367599;19;20759;-37
2023/12/20 05:11:48;;;;;;;13.47;3.13;;;;;;;3.87;100.00;100112.69;7388468;19;20399;-37
2023/12/20 05:14:18;;;;;;;5.43;1.10;;;;;;;3.87;100.00;100117.78;7373958;19;20395;-37
2023/12/20 05:16:48;;;;;;;11.27;1.23;;;;;;;3.88;100.00;100103.31;7390036;19;20510;-38
2023/12/20 05:19:17;;;;;;;12.33;1.87;;;;;;;3.92;100.00;100120.59;7373291;19;20825;-37
2023/12/20 05:21:49;;;;;;;10.83;1.50;;;;;;;3.96;100.00;100116.53;7392453;19;20408;-37
2023/12/20 05:24:19;;;;;;;8.47;1.63;;;;;;;3.96;100.00;100103.78;7374698;19;20391;-38
2023/12/20 05:26:49;;;;;;;10.53;0.90;;;;;;;3.98;100.00;100103.09;7395051;19;20465;-38
2023/12/20 05:29:21;;;;;;;8.40;1.97;;;;;;;3.99;100.00;100101.44;7373281;19;20395;-37
2023/12/20 05:31:51;;;;;;;2.70;1.00;;;;;;;4.01;100.00;100099.81;7394765;19;20428;-37
2023/12/20 05:34:21;;;;;;;2.83;1.07;;;;;;;4.03;100.00;100108.44;7371954;19;20404;-38
2023/12/20 05:36:53;;;;;;;9.43;2.27;;;;;;;3.99;100.00;100116.75;7396087;19;20442;-38
2023/12/20 05:39:23;;;;;;;7.47;1.23;;;;;;;3.91;100.00;100117.16;7373737;19;20984;-39
2023/12/20 05:41:52;;;;;;;3.90;1.77;;;;;;;3.87;100.00;100122.88;7394343;19;20436;-39
2023/12/20 05:44:22;;;;;;;3.60;1.27;;;;;;;3.84;100.00;100129.47;7373519;19;21377;-39
2023/12/20 05:46:51;;;;;;;10.53;2.53;;;;;;;3.81;100.00;100137.84;7394627;19;20440;-39
2023/12/20 05:49:21;;;;;;;33.20;2.13;;;;;;;3.83;100.00;100131.13;7373791;19;21018;-39
2023/12/20 05:51:54;;;;;;;13.23;2.83;;;;;;;3.88;100.00;100144.16;7392816;19;20409;-39
2023/12/20 05:54:24;;;;;;;8.77;2.17;;;;;;;3.96;100.00;100134.41;7373184;19;20919;-40
2023/12/20 05:56:53;;;;;;;22.47;3.70;;;;;;;3.95;100.00;100142.88;7395072;19;20443;-41
2023/12/20 05:59:23;;;;;;;15.87;3.80;;;;;;;3.94;100.00;100141.97;7374500;19;20408;-40
2023/12/20 06:01:53;;;;;;;8.73;2.40;;;;;;;3.98;100.00;100150.69;7393956;19;20762;-39
2023/12/20 06:04:23;;;;;;;13.33;2.93;;;;;;;3.95;100.00;100153.94;7373078;19;20939;-39
2023/12/20 06:06:55;;;;;;;3.93;1.40;;;;;;;3.93;100.00;100155.53;7395830;19;20814;-39
2023/12/20 06:09:25;;;;;;;17.00;4.40;;;;;;;3.98;100.00;100141.38;7373394;19;20399;-39
2023/12/20 06:11:55;;;;;;;11.60;3.47;;;;;;;3.91;100.00;100160.53;7393392;19;20487;-40
2023/12/20 06:14:24;;;;;;;9.53;2.20;;;;;;;3.71;100.00;100163.59;7373138;19;20395;-39
2023/12/20 06:16:54;;;;;;;17.30;2.93;;;;;;;3.71;100.00;100191.66;7393737;19;21010;-39
2023/12/20 06:19:23;;;;;;;29.63;7.17;;;;;;;3.69;100.00;100228.97;7372296;19;20994;-39
2023/12/20 06:21:56;;;;;;;9.33;2.77;;;;;;;3.71;100.00;100265.66;7393630;19;20413;-38
2023/12/20 06:24:27;;;;;;;13.70;4.80;;;;;;;3.73;100.00;100287.03;7372348;19;20395;-39
2023/12/20 06:26:57;;;;;;;21.10;6.23;;;;;;;3.84;100.00;100305.59;7392736;19;20468;-39
2023/12/20 06:29:27;;;;;;;7.43;2.10;;;;;;;3.79;100.00;100323.16;7372483;19;20410;-39
2023/12/20 06:31:56;;;;;;;11.03;3.07;;;;;;;3.82;100.00;100333.56;7395847;19;20410;-39
2023/12/20 06:34:26;;;;;;;3.97;1.13;;;;;;;3.82;100.00;100341.22;7371207;19;20403;-40
2023/12/20 06:36:58;;;;;;;7.57;1.60;;;;;;;3.76;100.00;100338.28;7392447;19;21057;-39
2023/12/20 06:39:29;;;;;;;8.17;1.70;;;;;;;3.75;100.00;100341.63;7368656;19;20423;-39
2023/12/20 06:41:58;;;;;;;6.40;2.60;;;;;;;3.76;100.00;100343.38;7395410;19;20483;-39
2023/12/20 06:44:28;;;;;;;14.20;2.87;;;;;;;3.77;100.00;100327.28;7371937;19;20395;-40
2023/12/20 06:46:57;;;;;;;7.20;1.57;;;;;;;3.76;100.00;100317.88;7393151;19;20439;-39
2023/12/20 06:49:27;;;;;;;2.80;0.67;;;;;;;3.74;100.00;100319.44;7372114;19;21222;-40
2023/12/20 06:51:59;;;;;;;6.20;1.67;;;;;;;3.75;100.00;100316.09;7392756;19;20421;-38
2023/12/20 06:54:29;;;;;;;4.07;1.10;;;;;;;3.75;100.00;100318.66;7371922;19;21002;-39
2023/12/20 06:56:58;;;;;;;5.40;0.80;;;;;;;3.75;100.00;100313.56;7393354;19;20527;-40
2023/12/20 06:59:28;;;;;;;13.87;2.63;;;;;;;3.74;100.00;100329.66;7371608;19;20523;-39
2023/12/20 07:01:58;;;;;;;3.70;1.20;;;;;;;3.73;100.00;100345.72;7392629;19;20404;-36
2023/12/20 07:04:30;;;;;;;6.27;1.17;;;;;;;3.75;100.00;100346.72;7371390;19;20403;-39
2023/12/20 07:07:02;;;;;;;10.27;2.07;;;;;;;3.73;100.00;100354.28;7392930;19;20459;-40
2023/12/20 07:09:31;;;;;;;9.63;1.77;;;;;;;3.73;100.00;100359.38;7371567;19;20406;-39
2023/12/20 07:12:02;;;;;;;2.37;1.30;;;;;;;3.77;100.00;100348.59;7388772;19;20408;-38
2023/12/20 07:14:31;;;;;;;10.00;1.40;;;;;;;3.77;100.00;100351.16;7372591;19;21167;-38
2023/12/20 07:17:01;;;;;;;5.23;1.87;;;;;;;3.78;100.00;100341.81;7385702;19;20442;-39
2023/12/20 07:19:31;;;;;;;10.00;1.40;;;;;;;3.81;100.00;100339.47;7385214;19;20483;-39
2023/12/20 07:22:04;;;;;;;11.20;2.00;;;;;;;3.82;100.00;100323.34;7386278;19;20419;-39
2023/12/20 07:24:34;;;;;;;5.73;1.67;;;;;;;3.81;100.00;100326.69;7387731;19;20438;-38
2023/12/20 07:27:03;;;;;;;10.57;2.13;;;;;;;3.82;100.00;100313.16;7387755;19;20447;-39
2023/12/20 07:29:33;;;;;;;12.90;2.30;;;;;;;3.83;100.00;100325.13;7388446;19;20416;-38
2023/12/20 07:32:03;;;;;;;7.63;2.20;;;;;;;3.81;100.00;100306.28;7388454;19;20403;-38
2023/12/20 07:34:32;;;;;;;21.20;3.00;;;;;;;3.83;100.00;100307.25;7388102;19;20423;-39
2023/12/20 07:37:10;;;;;;;15.43;2.20;;;;;;;3.81;100.00;100316.50;7389439;19;20443;-38
2023/12/20 07:39:40;;;;;;;8.43;2.33;;;;;;;3.80;100.00;100330.03;7387948;19;20418;-39
2023/12/20 07:42:09;;;;;;;4.40;1.13;;;;;;;3.82;100.00;100322.47;7388259;19;20940;-38
2023/12/20 07:44:39;;;;;;;7.70;1.50;;;;;;;3.85;100.00;100304.78;7387338;19;20436;-38
2023/12/20 07:47:09;;;;;;;12.07;1.43;;;;;;;3.88;100.00;100297.31;7383253;19;20519;-38
2023/12/20 07:49:38;;;;;;;33.53;8.77;;;;;;;3.96;100.00;100300.34;7395132;19;20411;-38
2023/12/20 07:52:10;;;;;;;17.17;4.33;;;;;;;3.94;100.00;100290.03;7392050;19;20478;-38
2023/12/20 07:54:41;;;;;;;9.47;3.93;;;;;;;3.94;100.00;100299.38;7359558;19;20419;-38
2023/12/20 07:57:08;;;;;;;5.57;2.27;;;;;;;3.95;100.00;100299.44;7393564;19;20471;-38
2023/12/20 07:59:37;;;;;;;25.10;5.47;;;;;;;4.00;100.00;100297.19;7368515;19;20855;-38
2023/12/20 08:02:07;;;;;;;14.63;4.07;;;;;;;4.00;100.00;100297.19;7389493;19;20974;-37
2023/12/20 08:04:36;;;;;;;8.43;2.17;;;;;;;4.03;100.00;100287.16;7367758;19;20447;-42
2023/12/20 08:07:06;;;;;;;6.93;1.97;;;;;;;3.95;100.00;100285.81;7391453;19;20439;-37
2023/12/20 08:09:39;;;;;;;13.53;2.00;;;;;;;3.94;100.00;100272.16;7367592;19;20427;-37
2023/12/20 08:12:09;;;;;;;5.53;1.17;;;;;;;4.02;100.00;100265.88;7391681;19;20430;-37
2023/12/20 08:14:39;;;;;;;13.33;2.50;;;;;;;4.05;100.00;100224.28;7368356;19;21338;-38
2023/12/20 08:17:08;;;;;;;11.40;2.40;;;;;;;4.05;100.00;100201.31;7391736;19;20454;-38
2023/12/20 08:19:38;;;;;;;9.77;2.60;;;;;;;4.10;100.00;100179.50;7367367;19;20423;-37
2023/12/20 08:22:07;;;;;;;16.03;2.90;;;;;;;4.13;100.00;100168.59;7391492;19;20411;-37
2023/12/20 08:24:40;;;;;;;9.53;2.00;;;;;;;4.11;100.00;100139.53;7369040;19;20419;-38
2023/12/20 08:27:10;;;;;;;11.53;2.60;;;;;;;4.14;100.00;100117.63;7390512;19;20444;-37
2023/12/20 08:29:39;;;;;;;2.67;0.90;;;;;;;4.10;100.00;100113.09;7368222;19;20431;-38
2023/12/20 08:32:09;;;;;;;9.60;1.80;;;;;;;4.12;100.00;100103.88;7390779;19;20415;-37
2023/12/20 08:34:38;;;;;;;8.23;1.40;;;;;;;4.15;100.00;100078.50;7367927;19;20419;-37
2023/12/20 08:37:08;;;;;;;7.63;2.60;;;;;;;4.18;100.00;100060.81;7387375;19;20439;-37
2023/12/20 08:39:40;;;;;;;9.70;2.27;;;;;;;4.16;100.00;100047.06;7364540;19;20433;-39
2023/12/20 08:42:14;;;;;;;15.63;1.90;;;;;;;4.19;100.00;100039.59;7388022;19;21270;-37
2023/12/20 08:44:43;;;;;;;10.70;2.23;;;;;;;4.23;100.00;100034.66;7365266;19;20447;-37
2023/12/20 08:47:15;;;;;;;4.37;1.07;;;;;;;4.24;100.00;100021.06;7389443;19;20438;-38
2023/12/20 08:49:46;;;;;;;5.30;1.03;;;;;;;4.30;100.00;100017.19;7368025;19;20403;-38
2023/12/20 08:52:16;;;;;;;6.20;0.70;;;;;;;4.30;100.00;100006.97;7395010;19;20411;-37
2023/12/20 08:54:48;;;;;;;9.30;1.50;;;;;;;4.30;100.00;100008.66;7372578;19;20853;-37
2023/12/20 08:57:18;;;;;;;17.60;2.70;;;;;;;4.29;100.00;100009.44;7395588;19;20473;-37
2023/12/20 08:59:47;;;;;;;3.77;1.33;;;;;;;4.26;100.00;99999.94;7370657;19;20982;-37
2023/12/20 09:02:17;;;;;;;9.70;1.17;;;;;;;4.25;100.00;100002.44;7394414;19;20403;-37
2023/12/20 09:04:46;;;;;;;16.37;1.73;;;;;;;4.26;100.00;100039.94;7371125;19;20427;-38
2023/12/20 09:07:26;;;;;;;31.10;7.67;;;;;;;4.35;100.00;100065.97;7395764;19;20454;-39
2023/12/20 09:09:58;;;;;;;17.83;2.40;;;;;;;4.21;100.00;100102.63;7372264;19;20508;-39
2023/12/20 09:12:28;;;;;;;61.50;16.43;;;;;;;4.21;100.00;100146.06;7395057;19;20432;-39
2023/12/20 09:14:58;;;;;;;12.97;4.57;;;;;;;4.19;100.00;100238.78;7373668;19;20519;-39
2023/12/20 09:17:27;;;;;;;17.17;3.00;;;;;;;4.01;100.00;100268.31;7394794;19;20475;-41
2023/12/20 09:19:59;;;;;;;19.67;6.07;;;;;;;4.00;100.00;100297.19;7370774;19;20501;-40
2023/12/20 09:22:29;;;;;;;27.83;9.20;;;;;;;3.97;100.00;100335.28;7395497;19;20418;-38
2023/12/20 09:25:01;;;;;;;11.17;4.07;;;;;;;3.92;100.00;100341.00;7373166;19;20431;-39
2023/12/20 09:27:31;;;;;;;8.43;1.47;;;;;;;3.80;100.00;100344.47;7392962;19;20846;-39
2023/12/20 09:30:00;;;;;;;6.53;1.63;;;;;;;3.82;100.00;100374.41;7372795;19;20431;-39
2023/12/20 09:32:30;;;;;;;16.17;4.83;;;;;;;3.85;100.00;100384.78;7394799;19;20420;-38
2023/12/20 09:35:00;;;;;;;10.10;2.20;;;;;;;3.80;100.00;100400.59;7234038;19;2716017;-39
2023/12/20 09:37:30;;;;;;;12.77;4.40;;;;;;;3.78;100.00;100420.91;7396596;19;20175;-39
2023/12/20 09:40:03;;;;;;;8.30;1.80;;;;;;;3.71;100.00;100426.41;7373549;19;20450;-39
2023/12/20 09:42:40;;;;;;;26.00;9.03;;;;;;;3.64;100.00;100415.81;7395325;19;20430;-41
2023/12/20 09:45:11;;;;;;;10.60;2.17;;;;;;;3.53;100.00;100419.34;7375596;19;20446;-39
2023/12/20 09:47:41;;;;;;;14.47;4.33;;;;;;;3.48;100.00;100434.34;7372348;19;20443;-39
2023/12/20 09:50:11;;;;;;;5.23;0.80;;;;;;;3.38;100.00;100429.44;7394108;19;20407;-39
2023/12/20 09:52:42;;;;;;;8.53;2.40;;;;;;;3.31;100.00;100440.91;7372422;19;20479;-39
2023/12/20 09:55:14;;;;;;;11.43;3.13;;;;;;;3.21;100.00;100443.63;7394672;19;20399;-39
2023/12/20 09:57:44;;;;;;;10.67;3.00;;;;;;;3.24;100.00;100413.25;7371654;19;20440;-38
2023/12/20 10:00:15;;;;;;;4.30;1.77;;;;;;;3.08;100.00;100406.25;7393285;19;21282;-38
2023/12/20 10:02:48;;;;;;;1.90;0.50;;;;;;;3.00;100.00;100410.81;7373204;19;20415;-38
2023/12/20 10:05:21;;;;;;;2.03;0.87;;;;;;;2.97;100.00;100403.84;7396615;19;20946;-38
2023/12/20 10:07:50;;;;;;;7.73;2.27;;;;;;;2.96;100.00;100406.28;7372110;19;20447;-38
2023/12/20 10:10:24;;;;;;;8.17;3.70;;;;;;;3.06;100.00;100434.19;7393759;19;20415;-38
2023/12/20 10:13:11;;;;;;;10.87;2.60;;;;;;;3.01;100.00;100449.94;7371521;19;21081;-38
2023/12/20 10:15:41;;;;;;;7.50;1.43;;;;;;;3.02;100.00;100472.97;7393552;19;20983;-38
2023/12/20 10:18:12;;;;;;;1.67;0.50;;;;;;;2.93;100.00;100457.06;7371220;19;20399;-38
2023/12/20 10:20:43;;;;;;;5.23;1.50;;;;;;;3.06;100.00;100457.13;7393160;19;20479;-38
2023/12/20 10:23:13;;;;;;;3.93;1.60;;;;;;;2.95;100.00;100455.50;7372885;19;20414;-38
2023/12/20 10:25:58;;;;;;;3.50;1.00;;;;;;;2.90;100.00;100457.75;7393791;19;20408;-38
2023/12/20 10:28:28;;;;;;;20.43;3.17;;;;;;;2.94;100.00;100448.66;7369493;19;20498;-38
2023/12/20 10:30:59;;;;;;;4.67;1.00;;;;;;;2.92;100.00;100445.13;7393323;19;20395;-39
2023/12/20 10:33:29;;;;;;;1.60;1.00;;;;;;;2.89;100.00;100434.69;7372010;19;20423;-38
2023/12/20 10:35:59;;;;;;;5.00;1.43;;;;;;;2.93;100.00;100426.50;7395277;19;20408;-39
2023/12/20 10:38:30;;;;;;;7.63;2.47;;;;;;;2.91;100.00;100410.19;7371600;19;20391;-38
2023/12/20 10:41:04;;;;;;;5.07;0.93;;;;;;;2.94;100.00;100402.78;7393451;19;20407;-38
2023/12/20 10:43:34;;;;;;;5.13;1.30;;;;;;;2.93;100.00;100393.38;7371525;19;20478;-38
2023/12/20 10:46:06;;;;;;;3.90;1.20;;;;;;;2.94;100.00;100383.28;7393828;19;20408;-38
2023/12/20 10:48:37;;;;;;;2.40;0.80;;;;;;;2.88;100.00;100372.69;7370613;19;20399;-38
2023/12/20 10:51:07;;;;;;;1.57;0.50;;;;;;;2.99;100.00;100355.53;7393516;19;20420;-38
2023/12/20 10:53:39;;;;;;;3.73;1.17;;;;;;;2.87;100.00;100354.72;7370222;19;20446;-37
2023/12/20 10:56:14;;;;;;;6.93;1.60;;;;;;;2.90;100.00;100344.72;7393176;19;20496;-38
2023/12/20 10:58:44;;;;;;;1.20;0.50;;;;;;;2.88;100.00;100347.19;7370423;19;20419;-38
2023/12/20 11:01:15;;;;;;;1.90;0.90;;;;;;;2.89;100.00;100345.50;7393091;19;20400;-38
2023/12/20 11:03:52;;;;;;;3.77;1.00;;;;;;;2.88;100.00;100329.34;7369472;19;20432;-38
2023/12/20 11:06:30;;;;;;;2.27;1.20;;;;;;;2.86;100.00;100327.47;7393556;19;20977;-37
2023/12/20 11:09:09;;;;;;;1.97;0.63;;;;;;;2.83;100.00;100339.22;7370171;19;20458;-37
2023/12/20 11:11:55;;;;;;;10.20;0.77;;;;;;;2.82;100.00;100345.09;7391942;19;20403;-37
2023/12/20 11:14:26;;;;;;;1.93;1.10;;;;;;;2.86;100.00;100353.81;7370776;19;20415;-38
2023/12/20 11:17:08;;;;;;;3.57;1.03;;;;;;;2.86;100.00;100363.16;7394584;19;20444;-37
2023/12/20 11:19:48;;;;;;;3.53;0.70;;;;;;;2.87;100.00;100370.00;7370896;19;20419;-37
2023/12/20 11:22:18;;;;;;;2.23;0.70;;;;;;;2.83;100.00;100394.41;7394044;19;20435;-38
2023/12/20 11:24:48;;;;;;;6.70;1.00;;;;;;;2.82;100.00;100390.09;7370950;19;20490;-38
2023/12/20 11:27:21;;;;;;;5.90;1.00;;;;;;;2.72;100.00;100403.84;7393386;19;20435;-38
2023/12/20 11:29:54;;;;;;;3.47;1.20;;;;;;;2.71;100.00;100404.63;7370451;19;20427;-37
2023/12/20 11:32:32;;;;;;;3.97;1.17;;;;;;;2.71;100.00;100404.63;7393993;19;20779;-38
2023/12/20 11:35:03;;;;;;;6.10;1.00;;;;;;;2.72;100.00;100424.25;7370761;19;20998;-38
2023/12/20 11:37:35;;;;;;;6.13;1.10;;;;;;;2.71;100.00;100419.94;7390792;19;20423;-37